Terminal Aerodrome Forecast
Issued by NWS Boise, ID

Current Version | Previous Version | Text Only | Print | Product List | Glossary On
Versions: 1 2 3 4 5 6 7 8 9 10 11 12 13 14 15 16 17 18 19
000
FTUS45 KBOI 190539
TAFBOI
TAF
KBOI 190539Z 1906/2006 30007KT P6SM SCT020 BKN050
     FM191700 30015G25KT P6SM SCT020 BKN050
     FM192100 32020G30KT P6SM SCT020
     FM200100 31011KT P6SM SKC=

USA.gov is the U.S. government's official web portal to all federal, state and local government web resources and services.